Logo AVAMET
Benvolgut visitant, si us plau, ingressa Recuperar contrasenya

Inforatge Bellreguard

Dades diàries. Acumulats / Últims 30 dies disponibles

Data Temperatura (°C) Humitat rel. (%) Pressió rel. (hPa) Vent (km/h) Precipitació
Mínima Mitjana Màxima Amplitud
tèrmica
Mínima Mitjana Màxima Mínima Mitjana Màxima Predom. Mitjana Ràfega
màxima
Total
(mm)
Índex-n
Mínima Mitjana Màxima Mínima Mitjana Màxima n
0 a 1
P0 max
mm 5'
Dades mensuals acumulades fins l'últim dia disponible
06/2019 13,2 16,9 20,9 22,1 20,7 27,1 33,8 20,6 18 63 91 1.006 1.015 1.024   6,3 46,7 0,0
Dades anuals acumulades fins l'últim dia disponible
2019 1,4 11,1 22,2 15,6 11,4 20,5 33,8 32,4 15 63 98 993 1.019 1.036   6,9 72,2 268,2
Últims 30 dies disponibles
17-06-2019 16,6     24,7     33,8 17,2 24 60 91 1.013 1.016 1.019 SSE 5,1 29,6 0,0
16-06-2019 17,8     21,0     23,6 5,8 68 77 86 1.018 1.020 1.022 SSE 4,0 20,9 0,0
15-06-2019 20,9     25,3     29,2 8,3 22 37 75 1.013 1.016 1.019 SSO 10,5 37,0 0,0
14-06-2019 16,9     23,8     31,2 14,3 39 53 69 1.009 1.011 1.013 ESE 5,9 32,2 0,0
13-06-2019 17,9     21,0     22,6 4,7 55 71 86 1.012 1.013 1.015 E 6,8 25,9 0,0
12-06-2019 13,2     19,9     20,7 7,5 52 67 82 1.013 1.015 1.017 E 9,9 31,5 0,0
11-06-2019 17,7     19,8     23,4 5,7 58 72 86 1.010 1.012 1.015 E 5,2 31,5 0,0
10-06-2019 16,3     21,5     24,9 8,6 31 72 89 1.011 1.013 1.015 SE 5,2 29,6 0,0
09-06-2019 16,7     20,9     26,0 9,3 32 63 82 1.012 1.016 1.021 SE 4,0 20,9 0,0
08-06-2019 19,0     20,9     22,6 3,6 59 72 83 1.018 1.021 1.024 E 5,5 27,8 0,0
07-06-2019 17,9     23,3     27,8 9,9 37 58 81 1.011 1.014 1.018 ESE 6,6 29,6 0,0
06-06-2019 16,2     20,6     25,4 9,2 51 70 80 1.010 1.013 1.015 ESE 7,8 38,9 0,0
05-06-2019 18,1     23,2     29,1 11,0 18 56 88 1.006 1.009 1.013 SSO 7,8 46,7 0,0
04-06-2019 16,5     22,8     30,4 13,9 43 72 87 1.006 1.011 1.016 ESE 3,8 27,8 0,0
03-06-2019 15,9     23,7     33,4 17,5 26 57 79 1.013 1.016 1.019 SE 5,2 25,9 0,0
02-06-2019 15,7     22,5     29,7 14,0 28 51 72 1.016 1.019 1.021 SSE 7,2 31,5 0,0
01-06-2019 14,7     20,9     26,3 11,6 32 59 83 1.019 1.022 1.024 SSE 7,1 32,2 0,0
31-05-2019 15,1     20,9     25,5 10,4 38 57 75 1.022 1.024 1.025 SE 8,4 37,0 0,0
30-05-2019 13,9     20,1     25,4 11,5 39 54 66 1.023 1.024 1.026 SSE 6,9 31,5 0,0
29-05-2019 13,6     18,8     22,6 9,0 36 55 85 1.018 1.021 1.024 SSE 5,8 22,6 0,0
28-05-2019 16,1     19,6     22,0 5,9 42 67 85 1.012 1.014 1.018 SSE 7,0 31,5 0,0
27-05-2019 15,1     20,6     27,2 12,1 42 67 88 1.010 1.013 1.016 SSE 6,4 24,1 0,0
26-05-2019 14,1     18,6     22,3 8,2 52 70 83 1.015 1.017 1.019 SSE 6,7 25,9 0,0
25-05-2019 15,8     18,1     22,9 7,1 49 74 90 1.015 1.017 1.019 SSO 4,0 20,9 1,0
24-05-2019 16,8     18,6     20,3 3,5 67 81 91 1.013 1.015 1.016 S 3,5 29,6 1,4
23-05-2019 15,3     21,5     29,2 13,9 31 67 88 1.013 1.016 1.018 SSE 3,9 19,3 0,0
22-05-2019 14,2     19,4     25,4 11,2 54 78 92 1.015 1.018 1.019 SSE 5,1 20,9 0,0
21-05-2019 17,1     19,0     24,9 7,8 48 78 89 1.014 1.015 1.017 SSE 4,7 37,0 1,4
20-05-2019 12,3     18,6     23,7 11,4 35 61 79 1.011 1.013 1.014 SSE 7,7 33,9 0,0
19-05-2019 12,5     18,0     24,3 11,8 27 64 87 1.009 1.011 1.013 S 5,1 31,5 0,0
Últims 13 mesos disponibles
05/2019 9,6 14,9 22,2 19,5 18,5 24,3 31,6 22,0 35 67 81 1.006 1.015 1.024 SSE 6,4 51,9 5,6
04/2019 8,8 12,2 17,0 16,0 14,6 20,1 29,7 20,9 38 68 94 1.000 1.013 1.025 SSE 7,8 51,9 204,8
03/2019 6,2 9,5 16,0 14,8 14,1 19,9 28,6 22,4 30 61 93 1.011 1.023 1.030 SSE 5,8 61,1 55,4
02/2019 4,5 7,7 11,7 12,4 13,3 17,5 22,7 18,2 33 64 84 995 1.025 1.034 S 6,7 72,2 0,0
01/2019 1,4 7,4 14,4 11,6 11,4 16,9 21,2 19,8 40 59 80 1.002 1.019 1.031 SSO 8,1 61,1 2,4
12/2018 4,8 9,5 14,3 13,6 14,8 19,2 25,9 21,1 53 69 90 1.010 1.025 1.031 SSO 6,3 51,9 19,6
11/2018 7,1 12,4 15,7 15,3 16,3 19,0 23,3 16,2 48 73 96 1.001 1.016 1.024 OSO 6,3 58,0 204,4
Tots els anys disponibles
Temperatura (°C)
Humitat relativa (%)
Velocitat del vent i ràfega màxima (km/h)
Direcció del vent (°)
Pressió (hPa)
Precipitació (mm)
Nota sobre les dades: s'avisa a l'usuari de la provisionalitat i no oficialitat d'aquestes dades
Logo AVAMET blanc
Web allotjada a Sollutia
Llicència de Creative CommonsLa web d'AVAMET i els seus continguts estan subjectes a una llicència de
Reconeixement - No Comercial - Compartir igual
Properes estacions: Catadau - Urb. Lloma Molina (Inforatge), Altea - Club Nàutic d'Altea (Soci), Ares del Maestrat (Ajuntament Soci),      - - - - -      Últimes estacions: Ontinyent - El Pilar (Soci), Asp - Poliesportiu (Soci), Jacarilla - centro (MeteOrihuela), Elx - Maitino/Vallverda/Velarde/Matola/Ferriol (Soci TiempoElche.com) - - -